^^
Saratoga-Weather Station Historical Data
Daily Summary for May 18, 2022 Units:  Metric    English   Both
Daily Weekly Monthly Yearly Custom
  High: Low: Average:
Temperature: 30.2 °C 13.1 °C 21.8 °C
Dew Point: 16.5 °C 11.4 °C 13.9 °C
Humidity: 92% 34% 64%
Wind Speed: 9.7km/h 0km/h 1.6km/h
Wind Gust: 17.7km/h - -
Wind- - ESE
Pressure: 1020.3 hPa 1016.9 hPa -
Precipitation: 0.0 mm    
Historical Graphs
 
 
Tabular Data for May 18, 2022
Time Temperature Dew Point Pressure Wind Wind Speed Wind Gust Humidity Rainfall Rate (Hourly) solar
00:00 17.2 °C 13.1 °C 1018.3 hPa Calm     77% 0.0 mm 0 W/m2
00:06 17.1 °C 13.2 °C 1018.0 hPa Calm     78% 0.0 mm 0 W/m2
00:11 16.9 °C 13 °C 1018.3 hPa Calm     78% 0.0 mm 0 W/m2
00:16 16.9 °C 13 °C 1018.3 hPa Calm     78% 0.0 mm 0 W/m2
00:21 16.8 °C 12.9 °C 1018.3 hPa Calm     78% 0.0 mm 0 W/m2
00:26 16.8 °C 13.1 °C 1018.3 hPa Calm     79% 0.0 mm 0 W/m2
00:31 16.7 °C 13.2 °C 1018.3 hPa Calm     80% 0.0 mm 0 W/m2
00:36 16.5 °C 13 °C 1018.3 hPa Calm     80% 0.0 mm 0 W/m2
00:41 16.4 °C 12.9 °C 1018.3 hPa Calm     80% 0.0 mm 0 W/m2
00:46 16.3 °C 12.8 °C 1018.6 hPa Calm     80% 0.0 mm 0 W/m2
00:51 16.2 °C 12.9 °C 1018.6 hPa SE 1.4 km/h 1.6 km/h 81% 0.0 mm 0 W/m2
00:56 16.1 °C 13 °C 1018.6 hPa Calm     82% 0.0 mm 0 W/m2
01:01 16.1 °C 13 °C 1018.3 hPa Calm     82% 0.0 mm 0 W/m2
01:06 15.9 °C 12.8 °C 1018.3 hPa Calm     82% 0.0 mm 0 W/m2
01:11 15.9 °C 13 °C 1018.3 hPa Calm     83% 0.0 mm 0 W/m2
01:16 15.8 °C 13.1 °C 1018.6 hPa Calm     84% 0.0 mm 0 W/m2
01:21 15.7 °C 13 °C 1018.6 hPa Calm     84% 0.0 mm 0 W/m2
01:26 15.7 °C 13 °C 1018.6 hPa Calm     84% 0.0 mm 0 W/m2
01:31 15.7 °C 13 °C 1018.6 hPa Calm     84% 0.0 mm 0 W/m2
01:36 15.6 °C 12.9 °C 1018.6 hPa Calm     84% 0.0 mm 0 W/m2
01:41 15.6 °C 12.9 °C 1018.6 hPa Calm     84% 0.0 mm 0 W/m2
01:46 15.6 °C 13.1 °C 1018.6 hPa Calm     85% 0.0 mm 0 W/m2
01:51 15.5 °C 13 °C 1018.6 hPa Calm     85% 0.0 mm 0 W/m2
01:56 15.5 °C 13 °C 1019.0 hPa Calm     85% 0.0 mm 0 W/m2
02:01 15.4 °C 13.1 °C 1019.0 hPa Calm     86% 0.0 mm 0 W/m2
02:06 15.4 °C 13.1 °C 1019.0 hPa Calm     86% 0.0 mm 0 W/m2
02:11 15.3 °C 13.1 °C 1019.0 hPa Calm     87% 0.0 mm 0 W/m2
02:16 15.3 °C 13.1 °C 1019.0 hPa Calm     87% 0.0 mm 0 W/m2
02:21 15.3 °C 13.1 °C 1019.0 hPa Calm     87% 0.0 mm 0 W/m2
02:26 15.2 °C 13 °C 1019.0 hPa Calm     87% 0.0 mm 0 W/m2
02:31 15.2 °C 13 °C 1019.0 hPa Calm     87% 0.0 mm 0 W/m2
02:36 15.1 °C 13 °C 1019.0 hPa Calm     87% 0.0 mm 0 W/m2
02:41 15 °C 12.9 °C 1019.0 hPa Calm     87% 0.0 mm 0 W/m2
02:46 14.9 °C 12.8 °C 1019.0 hPa Calm     87% 0.0 mm 0 W/m2
02:51 14.8 °C 12.7 °C 1019.0 hPa Calm     87% 0.0 mm 0 W/m2
02:56 14.8 °C 12.8 °C 1019.0 hPa Calm     88% 0.0 mm 0 W/m2
03:01 14.7 °C 12.7 °C 1019.0 hPa Calm     88% 0.0 mm 0 W/m2
03:06 14.7 °C 12.7 °C 1019.0 hPa Calm     88% 0.0 mm 0 W/m2
03:11 14.6 °C 12.6 °C 1019.0 hPa Calm     88% 0.0 mm 0 W/m2
03:16 14.6 °C 12.6 °C 1019.0 hPa Calm     88% 0.0 mm 0 W/m2
03:21 14.6 °C 12.6 °C 1019.0 hPa Calm     88% 0.0 mm 0 W/m2
03:26 14.5 °C 12.5 °C 1019.0 hPa Calm     88% 0.0 mm 0 W/m2
03:31 14.4 °C 12.4 °C 1019.0 hPa Calm     88% 0.0 mm 0 W/m2
03:36 14.4 °C 12.4 °C 1019.0 hPa Calm     88% 0.0 mm 0 W/m2
03:41 14.3 °C 12.5 °C 1019.0 hPa Calm     89% 0.0 mm 0 W/m2
03:46 14.3 °C 12.5 °C 1019.0 hPa Calm     89% 0.0 mm 0 W/m2
03:51 14.3 °C 12.5 °C 1019.0 hPa Calm     89% 0.0 mm 0 W/m2
03:56 14.2 °C 12.4 °C 1019.0 hPa Calm     89% 0.0 mm 0 W/m2
04:01 14.1 °C 12.3 °C 1019.0 hPa Calm     89% 0.0 mm 0 W/m2
04:06 14.1 °C 12.3 °C 1019.0 hPa Calm     89% 0.0 mm 0 W/m2
04:11 13.9 °C 12.1 °C 1019.0 hPa Calm     89% 0.0 mm 0 W/m2
04:16 13.8 °C 12 °C 1019.3 hPa Calm     89% 0.0 mm 0 W/m2
04:22 13.8 °C 12.2 °C 1019.3 hPa Calm     90% 0.0 mm 0 W/m2
04:27 13.7 °C 11.9 °C 1019.3 hPa Calm     89% 0.0 mm 0 W/m2
04:32 13.7 °C 11.9 °C 1019.3 hPa Calm     89% 0.0 mm 0 W/m2
04:37 13.6 °C 11.8 °C 1019.3 hPa Calm     89% 0.0 mm 0 W/m2
04:42 13.7 °C 12.1 °C 1019.3 hPa Calm     90% 0.0 mm 0 W/m2
04:47 13.7 °C 12.1 °C 1019.3 hPa Calm     90% 0.0 mm 0 W/m2
04:52 13.7 °C 11.9 °C 1019.3 hPa Calm     89% 0.0 mm 0 W/m2
04:57 13.6 °C 11.8 °C 1019.3 hPa Calm     89% 0.0 mm 0 W/m2
05:02 13.6 °C 11.8 °C 1019.3 hPa Calm     89% 0.0 mm 0 W/m2
05:07 13.5 °C 11.7 °C 1019.3 hPa Calm     89% 0.0 mm 0 W/m2
05:12 13.5 °C 11.7 °C 1019.0 hPa Calm     89% 0.0 mm 0 W/m2
05:17 13.4 °C 11.6 °C 1019.0 hPa Calm     89% 0.0 mm 0 W/m2
05:22 13.3 °C 11.5 °C 1019.0 hPa Calm     89% 0.0 mm 0 W/m2
05:27 13.2 °C 11.4 °C 1019.3 hPa Calm     89% 0.0 mm 0 W/m2
05:32 13.2 °C 11.6 °C 1019.3 hPa Calm     90% 0.0 mm 0 W/m2
05:37 13.2 °C 11.6 °C 1019.3 hPa Calm     90% 0.0 mm 0 W/m2
05:42 13.1 °C 11.5 °C 1019.3 hPa Calm     90% 0.0 mm 0 W/m2
05:47 13.1 °C 11.5 °C 1019.3 hPa Calm     90% 0.0 mm 0 W/m2
05:52 13.1 °C 11.5 °C 1019.3 hPa Calm     90% 0.0 mm 5 W/m2
05:57 13.2 °C 11.8 °C 1019.3 hPa Calm     91% 0.0 mm 5 W/m2
06:02 13.2 °C 11.6 °C 1019.3 hPa Calm     90% 0.0 mm 9 W/m2
06:07 13.1 °C 11.5 °C 1019.6 hPa Calm     90% 0.0 mm 11 W/m2
06:12 13.1 °C 11.5 °C 1019.6 hPa Calm     90% 0.0 mm 12 W/m2
06:17 13.1 °C 11.5 °C 1019.6 hPa Calm     90% 0.0 mm 14 W/m2
06:22 13.2 °C 11.8 °C 1019.6 hPa Calm     91% 0.0 mm 12 W/m2
06:27 13.2 °C 11.8 °C 1019.6 hPa Calm     91% 0.0 mm 14 W/m2
06:32 13.3 °C 11.9 °C 1019.6 hPa Calm     91% 0.0 mm 14 W/m2
06:37 13.3 °C 11.9 °C 1019.6 hPa Calm     91% 0.0 mm 16 W/m2
06:42 13.3 °C 11.9 °C 1019.6 hPa Calm     91% 0.0 mm 19 W/m2
06:47 13.4 °C 12 °C 1019.6 hPa Calm     91% 0.0 mm 21 W/m2
06:52 13.4 °C 12 °C 1019.6 hPa Calm     91% 0.0 mm 23 W/m2
06:57 13.5 °C 12.1 °C 1019.6 hPa Calm     91% 0.0 mm 25 W/m2
07:02 13.6 °C 12.2 °C 1020.0 hPa Calm     91% 0.0 mm 28 W/m2
07:07 13.7 °C 12.3 °C 1020.0 hPa Calm     91% 0.0 mm 28 W/m2
07:12 13.7 °C 12.3 °C 1020.0 hPa Calm     91% 0.0 mm 46 W/m2
07:17 13.9 °C 12.5 °C 1020.0 hPa Calm     91% 0.0 mm 107 W/m2
07:22 14.3 °C 13 °C 1020.0 hPa Calm     92% 0.0 mm 97 W/m2
07:27 14.8 °C 13.3 °C 1020.0 hPa Calm     91% 0.0 mm 137 W/m2
07:32 15.7 °C 13.9 °C 1020.0 hPa Calm     89% 0.0 mm 151 W/m2
07:37 16.6 °C 14.1 °C 1020.0 hPa SE 1.4 km/h 1.6 km/h 85% 0.0 mm 163 W/m2
07:42 17.5 °C 14.2 °C 1020.0 hPa Calm     81% 0.0 mm 176 W/m2
07:47 18.2 °C 14.5 °C 1020.0 hPa Calm     79% 0.0 mm 195 W/m2
07:52 18.8 °C 14.1 °C 1020.3 hPa Calm     74% 0.0 mm 199 W/m2
07:57 19.2 °C 14 °C 1020.3 hPa Calm     72% 0.0 mm 227 W/m2
08:02 19.5 °C 13.9 °C 1020.3 hPa SE 1.4 km/h 1.6 km/h 70% 0.0 mm 234 W/m2
08:07 19.9 °C 14 °C 1020.3 hPa ESE 3.2 km/h 4.8 km/h 69% 0.0 mm 165 W/m2
08:12 20.1 °C 13.8 °C 1020.3 hPa East 3.2 km/h 4.8 km/h 67% 0.0 mm 90 W/m2
08:17 19.9 °C 13.6 °C 1020.3 hPa NNE 1.4 km/h 6.4 km/h 67% 0.0 mm 56 W/m2
08:22 19.9 °C 13.6 °C 1020.3 hPa ENE 3.2 km/h 3.2 km/h 67% 0.0 mm 51 W/m2
08:27 20 °C 13.7 °C 1020.3 hPa ENE 1.4 km/h 4.8 km/h 67% 0.0 mm 54 W/m2
08:32 20.1 °C 13.8 °C 1020.3 hPa ESE 1.4 km/h 3.2 km/h 67% 0.0 mm 51 W/m2
08:37 20.2 °C 14.1 °C 1020.3 hPa East 3.2 km/h 4.8 km/h 68% 0.0 mm 53 W/m2
08:42 20.2 °C 13.9 °C 1020.3 hPa East 3.2 km/h 3.2 km/h 67% 0.0 mm 54 W/m2
08:47 20.3 °C 13.7 °C 1020.3 hPa East 1.4 km/h 3.2 km/h 66% 0.0 mm 54 W/m2
08:52 20.6 °C 14 °C 1020.3 hPa East 1.4 km/h 4.8 km/h 66% 0.0 mm 54 W/m2
08:57 20.7 °C 13.9 °C 1020.3 hPa ESE 1.4 km/h 1.6 km/h 65% 0.0 mm 51 W/m2
09:02 20.6 °C 14 °C 1020.3 hPa ENE 1.4 km/h 3.2 km/h 66% 0.0 mm 54 W/m2
09:07 20.7 °C 14.1 °C 1020.3 hPa ENE 1.4 km/h 4.8 km/h 66% 0.0 mm 54 W/m2
09:12 20.7 °C 14.1 °C 1020.3 hPa SE 3.2 km/h 4.8 km/h 66% 0.0 mm 54 W/m2
09:17 20.7 °C 14.1 °C 1020.3 hPa NE 4.7 km/h 6.4 km/h 66% 0.0 mm 54 W/m2
09:22 20.8 °C 14.2 °C 1020.3 hPa ENE 1.4 km/h 4.8 km/h 66% 0.0 mm 54 W/m2
09:27 21.1 °C 14 °C 1020.3 hPa NNE 3.2 km/h 3.2 km/h 64% 0.0 mm 56 W/m2
09:32 21.1 °C 14.3 °C 1020.3 hPa ESE 4.7 km/h 4.8 km/h 65% 0.0 mm 58 W/m2
09:37 21.3 °C 14.5 °C 1020.3 hPa NE 3.2 km/h 3.2 km/h 65% 0.0 mm 60 W/m2
09:42 21.6 °C 14.5 °C 1020.3 hPa ENE 3.2 km/h 6.4 km/h 64% 0.0 mm 60 W/m2
09:47 21.6 °C 14.7 °C 1020.3 hPa ENE 3.2 km/h 4.8 km/h 65% 0.0 mm 62 W/m2
09:52 21.6 °C 14.5 °C 1020.3 hPa East 3.2 km/h 4.8 km/h 64% 0.0 mm 58 W/m2
09:57 21.8 °C 14.9 °C 1020.3 hPa Calm   4.8 km/h 65% 0.0 mm 91 W/m2
10:02 22.1 °C 14.7 °C 1020.3 hPa East 4.7 km/h 9.7 km/h 63% 0.0 mm 527 W/m2
10:07 22.2 °C 14.6 °C 1020.3 hPa East 4.7 km/h 6.4 km/h 62% 0.0 mm 568 W/m2
10:12 22.3 °C 14.7 °C 1020.3 hPa NE 1.4 km/h 4.8 km/h 62% 0.0 mm 580 W/m2
10:17 22.3 °C 14.7 °C 1020.3 hPa ESE 3.2 km/h 6.4 km/h 62% 0.0 mm 591 W/m2
10:22 22.7 °C 15 °C 1020.3 hPa NE 1.4 km/h 6.4 km/h 62% 0.0 mm 605 W/m2
10:27 22.8 °C 15.1 °C 1020.3 hPa NE 1.4 km/h 4.8 km/h 62% 0.0 mm 621 W/m2
10:32 22.9 °C 15 °C 1020.3 hPa ESE 3.2 km/h 9.7 km/h 61% 0.0 mm 635 W/m2
10:37 23.1 °C 15.2 °C 1020.3 hPa East 3.2 km/h 8 km/h 61% 0.0 mm 643 W/m2
10:42 23.2 °C 15.3 °C 1020.3 hPa East 1.4 km/h 4.8 km/h 61% 0.0 mm 643 W/m2
10:48 23.3 °C 15.6 °C 1020.3 hPa SE 3.2 km/h 8 km/h 62% 0.0 mm 668 W/m2
10:53 23.6 °C 15.4 °C 1020.3 hPa East 4.7 km/h 4.8 km/h 60% 0.0 mm 675 W/m2
10:58 23.7 °C 15.7 °C 1020.3 hPa East 3.2 km/h 6.4 km/h 61% 0.0 mm 686 W/m2
11:03 24 °C 16 °C 1020.3 hPa SE 3.2 km/h 8 km/h 61% 0.0 mm 698 W/m2
11:08 24.2 °C 15.7 °C 1020.3 hPa ESE 3.2 km/h 4.8 km/h 59% 0.0 mm 708 W/m2
11:13 24.3 °C 15.5 °C 1020.3 hPa ESE 4.7 km/h 4.8 km/h 58% 0.0 mm 719 W/m2
11:18 24.5 °C 16.2 °C 1020.3 hPa ESE 6.4 km/h 6.4 km/h 60% 0.0 mm 735 W/m2
11:23 24.7 °C 16.1 °C 1020.3 hPa NE 4.7 km/h 6.4 km/h 59% 0.0 mm 738 W/m2
11:28 24.8 °C 15.7 °C 1020.3 hPa East 3.2 km/h 8 km/h 57% 0.0 mm 708 W/m2
11:33 24.8 °C 16 °C 1020.3 hPa SE 3.2 km/h 6.4 km/h 58% 0.0 mm 754 W/m2
11:38 25.1 °C 15.7 °C 1020.3 hPa East 3.2 km/h 8 km/h 56% 0.0 mm 763 W/m2
11:43 25.3 °C 15.6 °C 1020.0 hPa Calm   6.4 km/h 55% 0.0 mm 777 W/m2
11:48 25.4 °C 15.4 °C 1020.0 hPa East 6.4 km/h 8 km/h 54% 0.0 mm 784 W/m2
11:53 25.6 °C 15.6 °C 1020.0 hPa SE 3.2 km/h 6.4 km/h 54% 0.0 mm 796 W/m2
12:03 26 °C 15.7 °C 1020.0 hPa NE 3.2 km/h 9.7 km/h 53% 0.0 mm 768 W/m2
12:08 26.2 °C 15 °C 1020.0 hPa East 6.4 km/h 6.4 km/h 50% 0.0 mm 773 W/m2
12:13 26.3 °C 15.4 °C 1020.0 hPa ESE 6.4 km/h 6.4 km/h 51% 0.0 mm 809 W/m2
12:18 26.4 °C 15.1 °C 1019.6 hPa ENE 3.2 km/h 4.8 km/h 50% 0.0 mm 807 W/m2
12:23 26.6 °C 14.7 °C 1019.6 hPa SSW 1.4 km/h 4.8 km/h 48% 0.0 mm 837 W/m2
12:28 26.7 °C 15.4 °C 1019.6 hPa ESE 1.4 km/h 6.4 km/h 50% 0.0 mm 835 W/m2
12:33 26.8 °C 15.5 °C 1019.6 hPa East 9.7 km/h 12.9 km/h 50% 0.0 mm 817 W/m2
12:38 26.9 °C 14.6 °C 1019.6 hPa WNW 4.7 km/h 4.8 km/h 47% 0.0 mm 824 W/m2
12:43 27 °C 15.4 °C 1019.6 hPa East 3.2 km/h 11.3 km/h 49% 0.0 mm 840 W/m2
12:48 27.3 °C 15.3 °C 1019.6 hPa ESE 1.4 km/h 6.4 km/h 48% 0.0 mm 835 W/m2
12:53 27.4 °C 14.4 °C 1019.6 hPa NE 1.4 km/h 11.3 km/h 45% 0.0 mm 840 W/m2
12:58 27.6 °C 14.9 °C 1019.3 hPa East 7.9 km/h 9.7 km/h 46% 0.0 mm 854 W/m2
13:03 27.7 °C 14.7 °C 1019.3 hPa NE 1.4 km/h 9.7 km/h 45% 0.0 mm 823 W/m2
13:08 27.6 °C 15.3 °C 1019.3 hPa East 3.2 km/h 6.4 km/h 47% 0.0 mm 851 W/m2
13:13 27.6 °C 14.9 °C 1019.3 hPa NW 3.2 km/h 6.4 km/h 46% 0.0 mm 847 W/m2
13:18 27.8 °C 15.5 °C 1019.3 hPa SE 4.7 km/h 6.4 km/h 47% 0.0 mm 858 W/m2
13:23 27.9 °C 14.5 °C 1019.3 hPa SE 4.7 km/h 4.8 km/h 44% 0.0 mm 867 W/m2
13:28 28.1 °C 14.3 °C 1019.3 hPa NE 4.7 km/h 9.7 km/h 43% 0.0 mm 868 W/m2
13:33 27.8 °C 14.4 °C 1019.3 hPa Calm   6.4 km/h 44% 0.0 mm 858 W/m2
13:38 27.9 °C 14.2 °C 1019.0 hPa Calm   9.7 km/h 43% 0.0 mm 867 W/m2
13:43 28.2 °C 14.4 °C 1019.0 hPa NW 6.4 km/h 8 km/h 43% 0.0 mm 868 W/m2
13:48 28.4 °C 15 °C 1019.0 hPa East 3.2 km/h 3.2 km/h 44% 0.0 mm 865 W/m2
13:53 28.4 °C 14.6 °C 1019.0 hPa ESE 4.7 km/h 9.7 km/h 43% 0.0 mm 870 W/m2
13:58 28.2 °C 14.1 °C 1019.0 hPa NNE 4.7 km/h 8 km/h 42% 0.0 mm 868 W/m2
14:03 28.1 °C 15 °C 1019.0 hPa ESE 9.7 km/h 9.7 km/h 45% 0.0 mm 870 W/m2
14:08 28.3 °C 14.9 °C 1019.0 hPa ENE 6.4 km/h 14.5 km/h 44% 0.0 mm 867 W/m2
14:13 28.5 °C 14 °C 1019.0 hPa SSE 1.4 km/h 3.2 km/h 41% 0.0 mm 858 W/m2
14:18 28.7 °C 13.8 °C 1019.0 hPa NE 4.7 km/h 14.5 km/h 40% 0.0 mm 867 W/m2
14:23 28.8 °C 13.9 °C 1019.0 hPa East 1.4 km/h 6.4 km/h 40% 0.0 mm 877 W/m2
14:28 28.8 °C 13.9 °C 1019.0 hPa ESE 4.7 km/h 4.8 km/h 40% 0.0 mm 874 W/m2
14:33 28.9 °C 13.2 °C 1019.0 hPa NE 4.7 km/h 9.7 km/h 38% 0.0 mm 877 W/m2
14:38 28.8 °C 13.9 °C 1018.6 hPa East 3.2 km/h 9.7 km/h 40% 0.0 mm 863 W/m2
14:43 28.8 °C 13.5 °C 1019.0 hPa ESE 1.4 km/h 3.2 km/h 39% 0.0 mm 863 W/m2
14:48 28.9 °C 13.9 °C 1018.6 hPa SE 4.7 km/h 8 km/h 40% 0.0 mm 863 W/m2
14:53 29.2 °C 13.8 °C 1018.6 hPa East 3.2 km/h 4.8 km/h 39% 0.0 mm 863 W/m2
14:58 29.4 °C 12.8 °C 1018.6 hPa East 1.4 km/h 6.4 km/h 36% 0.0 mm 854 W/m2
15:03 29.3 °C 12.7 °C 1018.6 hPa East 4.7 km/h 4.8 km/h 36% 0.0 mm 854 W/m2
15:08 29.3 °C 11.8 °C 1018.6 hPa WSW 3.2 km/h 6.4 km/h 34% 0.0 mm 854 W/m2
15:13 29.3 °C 12.3 °C 1018.6 hPa NE 1.4 km/h 4.8 km/h 35% 0.0 mm 833 W/m2
15:18 29.7 °C 12.2 °C 1018.6 hPa ESE 6.4 km/h 6.4 km/h 34% 0.0 mm 756 W/m2
15:23 29.8 °C 13.1 °C 1018.6 hPa ESE 1.4 km/h 11.3 km/h 36% 0.0 mm 826 W/m2
15:28 29.8 °C 12.2 °C 1018.6 hPa East 4.7 km/h 8 km/h 34% 0.0 mm 842 W/m2
15:33 29.8 °C 12.2 °C 1018.6 hPa ESE 4.7 km/h 8 km/h 34% 0.0 mm 759 W/m2
15:38 29.8 °C 12.2 °C 1018.3 hPa East 3.2 km/h 11.3 km/h 34% 0.0 mm 823 W/m2
15:43 29.7 °C 12.6 °C 1018.3 hPa WNW 1.4 km/h 3.2 km/h 35% 0.0 mm 812 W/m2
15:48 29.8 °C 13.1 °C 1018.3 hPa East 9.7 km/h 11.3 km/h 36% 0.0 mm 761 W/m2
15:58 29.8 °C 13.5 °C 1018.3 hPa ENE 6.4 km/h 11.3 km/h 37% 0.0 mm 765 W/m2
16:03 30 °C 13.3 °C 1018.3 hPa East 3.2 km/h 6.4 km/h 36% 0.0 mm 733 W/m2
16:08 30 °C 12.9 °C 1018.3 hPa ESE 1.4 km/h 6.4 km/h 35% 0.0 mm 638 W/m2
16:13 29.9 °C 12.8 °C 1018.3 hPa ESE 3.2 km/h 6.4 km/h 35% 0.0 mm 647 W/m2
16:18 30 °C 12.9 °C 1018.0 hPa East 6.4 km/h 11.3 km/h 35% 0.0 mm 531 W/m2
16:23 29.9 °C 13.2 °C 1018.0 hPa ENE 7.9 km/h 17.7 km/h 36% 0.0 mm 475 W/m2
16:28 29.7 °C 13 °C 1018.0 hPa SE 1.4 km/h 4.8 km/h 36% 0.0 mm 480 W/m2
16:33 29.8 °C 14 °C 1018.0 hPa SE 1.4 km/h 17.7 km/h 38% 0.0 mm 464 W/m2
16:38 29.9 °C 13.6 °C 1018.0 hPa WSW 1.4 km/h 4.8 km/h 37% 0.0 mm 487 W/m2
16:43 29.9 °C 13.2 °C 1018.0 hPa NNW 3.2 km/h 8 km/h 36% 0.0 mm 598 W/m2
16:48 29.9 °C 13.2 °C 1018.0 hPa East 1.4 km/h 6.4 km/h 36% 0.0 mm 654 W/m2
16:53 30 °C 13.3 °C 1018.0 hPa East 3.2 km/h 6.4 km/h 36% 0.0 mm 647 W/m2
16:58 30 °C 12.9 °C 1018.0 hPa Calm   1.6 km/h 35% 0.0 mm 489 W/m2
17:03 29.9 °C 13.2 °C 1018.0 hPa Calm   6.4 km/h 36% 0.0 mm 512 W/m2
17:08 29.8 °C 13.1 °C 1018.0 hPa WSW 1.4 km/h 1.6 km/h 36% 0.0 mm 601 W/m2
17:13 29.9 °C 13.2 °C 1018.0 hPa East 6.4 km/h 9.7 km/h 36% 0.0 mm 464 W/m2
17:18 30 °C 12.9 °C 1017.6 hPa ENE 1.4 km/h 9.7 km/h 35% 0.0 mm 513 W/m2
17:32 30.2 °C 13.9 °C 1017.6 hPa East 3.2 km/h 4.8 km/h 37% 0.0 mm 599 W/m2
17:37 30.2 °C 13.9 °C 1017.6 hPa ENE 3.2 km/h 3.2 km/h 37% 0.0 mm 473 W/m2
17:42 29.9 °C 13.2 °C 1017.6 hPa East 1.4 km/h 4.8 km/h 36% 0.0 mm 434 W/m2
17:47 29.8 °C 13.1 °C 1017.6 hPa ESE 4.7 km/h 6.4 km/h 36% 0.0 mm 429 W/m2
17:52 29.7 °C 13 °C 1017.6 hPa East 6.4 km/h 11.3 km/h 36% 0.0 mm 327 W/m2
18:03 29.6 °C 13.8 °C 1017.6 hPa Calm   3.2 km/h 38% 0.0 mm 262 W/m2
18:21 29.5 °C 14.9 °C 1017.6 hPa East 1.4 km/h 1.6 km/h 41% 0.0 mm 281 W/m2
18:26 29.5 °C 14.9 °C 1017.6 hPa East 1.4 km/h 3.2 km/h 41% 0.0 mm 304 W/m2
18:31 29.4 °C 14 °C 1017.6 hPa East 4.7 km/h 6.4 km/h 39% 0.0 mm 287 W/m2
18:36 29.3 °C 13.9 °C 1017.3 hPa ESE 1.4 km/h 4.8 km/h 39% 0.0 mm 237 W/m2
18:41 29.4 °C 14.4 °C 1017.6 hPa South 1.4 km/h 6.4 km/h 40% 0.0 mm 167 W/m2
18:46 29.3 °C 14.3 °C 1017.3 hPa Calm   1.6 km/h 40% 0.0 mm 151 W/m2
18:51 29.3 °C 14.7 °C 1017.3 hPa ESE 1.4 km/h 3.2 km/h 41% 0.0 mm 142 W/m2
18:56 29.2 °C 15.3 °C 1017.3 hPa East 3.2 km/h 6.4 km/h 43% 0.0 mm 130 W/m2
19:01 29.1 °C 15.6 °C 1017.3 hPa SSE 1.4 km/h 4.8 km/h 44% 0.0 mm 125 W/m2
19:06 28.8 °C 15 °C 1017.3 hPa NE 6.4 km/h 6.4 km/h 43% 0.0 mm 118 W/m2
19:11 28.7 °C 15.6 °C 1017.3 hPa Calm   1.6 km/h 45% 0.0 mm 114 W/m2
19:16 28.6 °C 14.8 °C 1016.9 hPa Calm   1.6 km/h 43% 0.0 mm 116 W/m2
19:21 28.6 °C 15.2 °C 1016.9 hPa SSE 1.4 km/h 3.2 km/h 44% 0.0 mm 114 W/m2
19:27 28.6 °C 15.5 °C 1016.9 hPa ESE 3.2 km/h 3.2 km/h 45% 0.0 mm 116 W/m2
19:32 28.7 °C 14.5 °C 1016.9 hPa ESE 1.4 km/h 6.4 km/h 42% 0.0 mm 113 W/m2
19:37 28.7 °C 16.3 °C 1016.9 hPa ESE 1.4 km/h 3.2 km/h 47% 0.0 mm 107 W/m2
19:42 28.7 °C 16.3 °C 1017.3 hPa NE 1.4 km/h 6.4 km/h 47% 0.0 mm 100 W/m2
19:47 28.6 °C 16.5 °C 1017.3 hPa SSE 1.4 km/h 3.2 km/h 48% 0.0 mm 90 W/m2
19:52 28.4 °C 16.3 °C 1017.3 hPa SSE 1.4 km/h 3.2 km/h 48% 0.0 mm 81 W/m2
19:57 28.2 °C 16.1 °C 1017.3 hPa Calm   4.8 km/h 48% 0.0 mm 76 W/m2
20:02 27.9 °C 16.2 °C 1016.9 hPa ESE 1.4 km/h 3.2 km/h 49% 0.0 mm 88 W/m2
20:07 27.7 °C 16 °C 1016.9 hPa ESE 3.2 km/h 4.8 km/h 49% 0.0 mm 62 W/m2
20:12 27.4 °C 16.1 °C 1016.9 hPa ESE 1.4 km/h 3.2 km/h 50% 0.0 mm 47 W/m2
20:17 27 °C 16 °C 1016.9 hPa ESE 1.4 km/h 3.2 km/h 51% 0.0 mm 44 W/m2
20:22 26.7 °C 16 °C 1016.9 hPa Calm   3.2 km/h 52% 0.0 mm 40 W/m2
20:27 26.3 °C 15.7 °C 1017.3 hPa Calm   3.2 km/h 52% 0.0 mm 35 W/m2
20:32 26.1 °C 15.8 °C 1016.9 hPa ESE 3.2 km/h 3.2 km/h 53% 0.0 mm 30 W/m2
20:37 25.8 °C 15.8 °C 1016.9 hPa ESE 1.4 km/h 1.6 km/h 54% 0.0 mm 26 W/m2
20:42 25.7 °C 15.4 °C 1016.9 hPa ESE 1.4 km/h 1.6 km/h 53% 0.0 mm 26 W/m2
20:47 25.4 °C 15.7 °C 1016.9 hPa ESE 1.4 km/h 1.6 km/h 55% 0.0 mm 25 W/m2
20:52 25.2 °C 15.5 °C 1016.9 hPa Calm   1.6 km/h 55% 0.0 mm 19 W/m2
20:57 25.1 °C 15.4 °C 1016.9 hPa ESE 1.4 km/h 3.2 km/h 55% 0.0 mm 14 W/m2
21:02 24.8 °C 15.4 °C 1016.9 hPa ESE 1.4 km/h 1.6 km/h 56% 0.0 mm 11 W/m2
21:07 24.6 °C 15.5 °C 1016.9 hPa Calm   1.6 km/h 57% 0.0 mm 7 W/m2
21:12 24.3 °C 15.2 °C 1016.9 hPa ESE 1.4 km/h 1.6 km/h 57% 0.0 mm 5 W/m2
21:17 24 °C 15.2 °C 1016.9 hPa Calm   1.6 km/h 58% 0.0 mm 0 W/m2
21:22 23.7 °C 15.5 °C 1016.9 hPa Calm     60% 0.0 mm 0 W/m2
21:27 23.4 °C 15.2 °C 1016.9 hPa Calm     60% 0.0 mm 0 W/m2
21:32 23.2 °C 15.5 °C 1016.9 hPa Calm     62% 0.0 mm 0 W/m2
21:37 22.9 °C 15.2 °C 1017.3 hPa Calm     62% 0.0 mm 0 W/m2
21:42 22.7 °C 15.3 °C 1017.3 hPa Calm     63% 0.0 mm 0 W/m2
21:47 22.4 °C 15 °C 1017.3 hPa Calm     63% 0.0 mm 0 W/m2
21:52 22.2 °C 15.3 °C 1017.3 hPa Calm     65% 0.0 mm 0 W/m2
21:57 22 °C 15.1 °C 1017.3 hPa Calm     65% 0.0 mm 0 W/m2
22:02 21.8 °C 15.2 °C 1017.3 hPa Calm     66% 0.0 mm 0 W/m2
22:07 21.7 °C 15.3 °C 1017.3 hPa Calm     67% 0.0 mm 0 W/m2
22:12 21.4 °C 15.2 °C 1017.3 hPa Calm     68% 0.0 mm 0 W/m2
22:17 21.3 °C 15.2 °C 1017.3 hPa Calm     68% 0.0 mm 0 W/m2
22:22 21.2 °C 15.3 °C 1017.3 hPa Calm     69% 0.0 mm 0 W/m2
22:27 21.1 °C 15.2 °C 1017.3 hPa Calm     69% 0.0 mm 0 W/m2
22:32 21.1 °C 15.4 °C 1017.3 hPa Calm     70% 0.0 mm 0 W/m2
22:37 20.9 °C 15.2 °C 1017.3 hPa Calm     70% 0.0 mm 0 W/m2
22:42 20.8 °C 15.1 °C 1017.6 hPa Calm     70% 0.0 mm 0 W/m2
22:47 20.7 °C 15.3 °C 1017.6 hPa Calm     71% 0.0 mm 0 W/m2
22:52 20.6 °C 15.2 °C 1017.6 hPa Calm     71% 0.0 mm 0 W/m2
22:57 20.4 °C 15 °C 1017.6 hPa Calm     71% 0.0 mm 0 W/m2
23:02 20.3 °C 15.1 °C 1017.6 hPa Calm     72% 0.0 mm 0 W/m2
23:07 20.2 °C 15 °C 1017.6 hPa Calm     72% 0.0 mm 0 W/m2
23:12 20.1 °C 14.9 °C 1017.6 hPa Calm     72% 0.0 mm 0 W/m2
23:17 20 °C 14.8 °C 1017.6 hPa Calm     72% 0.0 mm 0 W/m2
23:22 19.9 °C 14.7 °C 1017.3 hPa Calm     72% 0.0 mm 0 W/m2
23:27 19.8 °C 14.8 °C 1017.3 hPa Calm     73% 0.0 mm 0 W/m2
23:32 19.7 °C 14.7 °C 1017.3 hPa Calm     73% 0.0 mm 0 W/m2
23:37 19.7 °C 14.7 °C 1017.6 hPa Calm     73% 0.0 mm 0 W/m2
23:42 19.6 °C 14.6 °C 1017.3 hPa Calm     73% 0.0 mm 0 W/m2
23:47 19.4 °C 14.4 °C 1017.3 hPa Calm     73% 0.0 mm 0 W/m2
23:52 19.4 °C 14.6 °C 1017.3 hPa Calm     74% 0.0 mm 0 W/m2
23:58 19.3 °C 14.5 °C 1017.3 hPa Calm     74% 0.0 mm 0 W/m2
Juneau County Weather
Compliments of Weather Underground - 4 mb